Time;durP1;ratioP1;P1;durP2;ratioP2;P2;SDS_P1;SDS_P2;PMS_P1;PMS_P2;Temp;Humidity;BMP_temperature;BMP_pressure;BME280_temperature;BME280_humidity;BME280_pressure;Samples;Min_cycle;Max_cycle;Signal;HPM_P1;HPM_P2
2023/03/19 00:01:38;;;;;;;;;45.00;38.00;;;;;11.98;29.29;98912.66;6279464;27;96836;-63
2023/03/19 00:04:43;;;;;;;;;43.20;36.00;;;;;11.92;28.83;98919.03;6240376;27;97133;-63
2023/03/19 00:07:47;;;;;;;;;43.80;36.00;;;;;11.90;29.16;98918.41;6251339;27;98295;-62
2023/03/19 00:10:50;;;;;;;;;40.00;33.20;;;;;11.86;28.66;98926.16;6249904;27;99609;-63
2023/03/19 00:13:54;;;;;;;;;46.75;36.50;;;;;11.78;28.67;98921.06;6248505;27;96498;-63
2023/03/19 00:16:57;;;;;;;;;41.75;35.00;;;;;11.69;30.06;98922.41;6268582;27;97671;-63
2023/03/19 00:20:02;;;;;;;;;42.20;34.80;;;;;11.62;29.84;98927.06;6212441;27;96349;-63
2023/03/19 00:23:06;;;;;;;;;38.00;33.00;;;;;11.54;29.49;98924.66;6271892;27;96793;-63
2023/03/19 00:26:09;;;;;;;;;45.60;38.00;;;;;11.39;30.91;98930.44;6317026;27;96514;-63
2023/03/19 00:29:13;;;;;;;;;41.25;34.50;;;;;11.26;30.27;98936.84;6301344;27;96777;-64
2023/03/19 00:32:16;;;;;;;;;44.00;36.00;;;;;11.17;30.42;98923.88;6251789;27;96283;-63
2023/03/19 00:35:21;;;;;;;;;45.00;38.00;;;;;11.05;31.26;98931.88;6255685;27;98394;-62
2023/03/19 00:38:25;;;;;;;;;42.60;35.00;;;;;10.98;32.09;98925.75;6277408;27;97228;-63
2023/03/19 00:41:28;;;;;;;;;43.00;36.00;;;;;10.91;31.79;98926.84;6291241;27;96452;-64
2023/03/19 00:44:31;;;;;;;;;43.00;34.00;;;;;10.79;32.27;98930.28;6254401;27;98930;-63
2023/03/19 00:47:35;;;;;;;;;45.00;38.00;;;;;10.74;32.04;98921.22;6255608;27;97492;-63
2023/03/19 00:50:39;;;;;;;;;49.80;40.40;;;;;10.72;32.18;98913.34;6256763;27;96533;-63
2023/03/19 00:53:44;;;;;;;;;45.00;37.60;;;;;10.72;32.49;98912.50;6314412;27;96234;-62
2023/03/19 00:56:48;;;;;;;;;43.00;36.00;;;;;10.67;32.58;98909.66;6246877;27;96462;-65
2023/03/19 00:59:51;;;;;;;;;43.25;34.75;;;;;10.61;33.06;98919.44;6305854;27;96460;-63
2023/03/19 01:02:54;;;;;;;;;40.60;33.60;;;;;10.55;32.85;98914.94;6293005;27;96440;-63
2023/03/19 01:05:59;;;;;;;;;40.00;35.00;;;;;10.24;33.48;98886.19;6256512;27;96933;-63
2023/03/19 01:09:02;;;;;;;;;47.20;35.40;;;;;10.28;33.95;98905.41;6246097;27;96641;-63
2023/03/19 01:12:06;;;;;;;;;47.00;39.00;;;;;10.18;34.52;98908.59;6262863;27;96381;-63
2023/03/19 01:15:10;;;;;;;;;47.20;37.20;;;;;10.14;34.72;98911.91;6285844;27;97112;-63
2023/03/19 01:18:14;;;;;;;;;42.00;34.60;;;;;10.01;34.91;98904.75;6285188;27;96447;-63
2023/03/19 01:21:19;;;;;;;;;38.25;33.00;;;;;9.86;34.91;98912.31;6303107;27;96669;-63
2023/03/19 01:24:24;;;;;;;;;43.40;36.00;;;;;9.76;35.43;98906.56;6260349;27;96674;-63
2023/03/19 01:27:29;;;;;;;;;47.00;39.00;;;;;9.51;36.58;98910.03;6242216;27;98356;-63
2023/03/19 01:30:33;;;;;;;;;48.00;39.00;;;;;9.34;36.92;98911.53;6223047;27;96603;-63
2023/03/19 01:34:06;;;;;;;;;51.75;41.50;;;;;9.20;38.22;98912.63;6235777;27;96608;-63
2023/03/19 01:37:24;;;;;;;;;58.20;46.00;;;;;9.03;40.06;98912.28;6303342;27;96406;-63
2023/03/19 01:40:28;;;;;;;;;63.00;49.00;;;;;8.87;40.04;98909.19;6242406;27;96232;-63
2023/03/19 01:43:32;;;;;;;;;59.00;47.00;;;;;8.75;40.48;98908.19;6313961;27;96813;-63
2023/03/19 01:47:17;;;;;;;;;56.60;45.40;;;;;8.67;40.25;98909.22;6290989;27;98552;-63
2023/03/19 01:50:57;;;;;;;;;57.00;46.00;;;;;8.59;40.56;98909.47;6271951;27;96858;-63
2023/03/19 01:54:25;;;;;;;;;53.00;43.60;;;;;8.57;40.28;98903.44;6222237;27;98352;-62
2023/03/19 01:57:47;;;;;;;;;57.00;44.50;;;;;8.51;40.52;98905.09;6257113;27;98413;-63
2023/03/19 02:01:10;;;;;;;;;54.60;44.00;;;;;8.46;40.68;98910.28;6202679;27;96471;-62
2023/03/19 02:04:19;;;;;;;;;54.75;41.00;;;;;8.50;40.25;98910.72;6259213;27;96163;-62
2023/03/19 02:07:23;;;;;;;;;56.75;45.00;;;;;8.57;40.26;98916.88;6312821;27;96354;-63
2023/03/19 02:10:29;;;;;;;;;57.00;45.00;;;;;8.59;40.06;98910.28;6241259;27;96658;-62
2023/03/19 02:13:34;;;;;;;;;56.00;44.00;;;;;8.58;39.81;98913.16;6264919;27;96703;-63
2023/03/19 02:16:37;;;;;;;;;55.00;44.00;;;;;8.56;40.50;98912.53;6265409;27;96202;-63
2023/03/19 02:19:50;;;;;;;;;56.25;45.25;;;;;8.52;40.39;98904.06;6234612;27;98994;-63
2023/03/19 02:23:04;;;;;;;;;55.80;45.40;;;;;8.56;39.92;98902.63;6282498;27;96269;-62
2023/03/19 02:26:11;;;;;;;;;51.60;41.00;;;;;8.60;39.07;98901.16;6308896;27;96456;-63
2023/03/19 02:29:15;;;;;;;;;49.40;39.40;;;;;8.69;38.67;98913.38;6224184;27;97482;-63
2023/03/19 02:32:20;;;;;;;;;47.00;38.00;;;;;8.81;38.41;98912.72;6273599;27;96219;-63
2023/03/19 02:35:24;;;;;;;;;49.00;41.00;;;;;8.81;38.27;98918.09;6276131;27;96519;-63
2023/03/19 02:38:30;;;;;;;;;50.00;40.20;;;;;8.80;38.19;98921.81;6255882;27;96956;-62
2023/03/19 02:41:38;;;;;;;;;49.00;40.00;;;;;8.85;38.05;98920.16;6267153;27;96416;-62
2023/03/19 02:44:42;;;;;;;;;47.80;39.60;;;;;8.89;38.30;98934.03;6299018;27;96633;-63
2023/03/19 02:47:45;;;;;;;;;47.50;40.00;;;;;8.89;38.19;98931.34;6201546;27;96607;-63
2023/03/19 02:50:49;;;;;;;;;51.00;41.00;;;;;8.88;38.44;98927.81;6281738;27;96397;-63
2023/03/19 02:53:52;;;;;;;;;49.40;40.80;;;;;8.61;39.14;98899.31;6202158;27;97013;-62
2023/03/19 02:56:57;;;;;;;;;54.40;44.00;;;;;8.58;39.53;98930.13;6294764;27;96402;-63
2023/03/19 03:00:00;;;;;;;;;56.40;45.60;;;;;8.37;40.33;98927.63;6235831;27;96912;-62
2023/03/19 03:03:06;;;;;;;;;53.00;44.00;;;;;8.20;40.53;98927.22;6234068;27;97041;-63
2023/03/19 03:06:10;;;;;;;;;58.00;46.00;;;;;8.13;41.17;98928.22;6242838;27;96983;-63
2023/03/19 03:09:14;;;;;;;;;55.00;43.00;;;;;8.11;40.95;98925.72;6296280;27;96333;-62
2023/03/19 03:12:19;;;;;;;;;52.60;42.20;;;;;8.10;41.06;98926.78;6215112;27;98343;-63
2023/03/19 03:15:23;;;;;;;;;52.40;42.80;;;;;8.11;41.21;98941.03;6254756;27;97305;-63
2023/03/19 03:18:26;;;;;;;;;57.60;45.80;;;;;8.18;41.37;98933.78;6269838;27;96878;-62
2023/03/19 03:21:30;;;;;;;;;62.25;48.00;;;;;8.25;42.05;98932.78;6212352;27;96218;-62
2023/03/19 03:24:35;;;;;;;;;62.00;48.60;;;;;8.22;42.20;98924.28;6204386;27;98478;-63
2023/03/19 03:27:40;;;;;;;;;58.20;47.20;;;;;8.38;42.06;98945.41;6203908;28;96159;-63
2023/03/19 03:30:44;;;;;;;;;55.25;45.00;;;;;8.32;42.00;98938.19;6295462;27;96362;-62
2023/03/19 03:33:47;;;;;;;;;50.00;41.00;;;;;8.11;41.99;98936.47;6245522;27;96547;-63
2023/03/19 03:36:51;;;;;;;;;53.60;43.00;;;;;7.91;42.37;98948.22;6280745;27;98357;-65
2023/03/19 03:39:54;;;;;;;;;56.20;44.60;;;;;7.64;42.99;98948.13;6274225;27;96617;-64
2023/03/19 03:42:59;;;;;;;;;55.00;45.00;;;;;7.53;43.12;98940.66;6288038;27;97460;-63
2023/03/19 03:46:03;;;;;;;;;54.00;44.00;;;;;7.45;43.22;98948.88;6262386;27;96287;-63
2023/03/19 03:49:06;;;;;;;;;56.00;45.40;;;;;7.44;43.68;98939.19;6286471;27;96838;-63
2023/03/19 03:52:09;;;;;;;;;56.00;44.00;;;;;7.40;43.57;98952.19;6227079;27;96454;-63
2023/03/19 03:55:13;;;;;;;;;61.50;48.00;;;;;7.50;44.14;98959.84;6250415;27;96535;-63
2023/03/19 03:58:18;;;;;;;;;57.40;44.40;;;;;7.51;43.58;98958.81;6268147;27;96972;-62
2023/03/19 04:01:22;;;;;;;;;57.00;45.00;;;;;7.50;43.65;98959.84;6237485;27;96870;-65
2023/03/19 04:04:29;;;;;;;;;58.60;47.00;;;;;7.53;44.34;98967.47;6277885;27;96939;-63
2023/03/19 04:07:33;;;;;;;;;55.60;45.40;;;;;7.49;44.28;98968.09;6267647;27;97410;-63
2023/03/19 04:10:41;;;;;;;;;61.20;48.00;;;;;7.36;43.60;98948.25;6265618;27;98478;-63
2023/03/19 04:13:45;;;;;;;;;58.00;46.60;;;;;7.46;44.25;98960.44;6219846;27;97506;-62
2023/03/19 04:16:49;;;;;;;;;56.60;46.00;;;;;7.46;44.20;98966.66;6243879;27;96346;-63
2023/03/19 04:19:52;;;;;;;;;63.00;48.00;;;;;7.49;44.25;98965.41;6255781;27;97028;-63
2023/03/19 04:22:56;;;;;;;;;59.33;46.67;;;;;7.45;44.45;98962.31;6292306;27;96292;-63
2023/03/19 04:26:00;;;;;;;;;61.00;48.00;;;;;7.33;44.45;98963.91;6243465;27;96276;-63
2023/03/19 04:29:07;;;;;;;;;60.00;48.00;;;;;7.25;44.47;98969.41;6260152;27;97457;-62
2023/03/19 04:32:11;;;;;;;;;58.80;47.00;;;;;7.21;44.72;98971.69;6253015;27;96337;-63
2023/03/19 04:35:14;;;;;;;;;61.20;48.00;;;;;7.09;44.81;98946.44;6250934;27;96625;-63
2023/03/19 04:38:18;;;;;;;;;60.25;47.00;;;;;7.13;44.82;98957.63;6251494;27;96822;-62
2023/03/19 04:41:21;;;;;;;;;57.00;46.00;;;;;6.95;45.00;98939.34;6252646;27;97097;-62
2023/03/19 04:44:38;;;;;;;;;56.25;45.25;;;;;6.90;45.32;98950.66;6277529;27;96610;-65
2023/03/19 04:47:42;;;;;;;;;58.80;46.00;;;;;6.85;45.38;98949.59;6254824;27;96455;-62
2023/03/19 04:50:46;;;;;;;;;59.00;46.75;;;;;6.88;45.25;98950.06;6260468;27;98342;-60
2023/03/19 04:53:50;;;;;;;;;61.00;47.40;;;;;6.90;45.18;98947.16;6259215;27;98317;-60
2023/03/19 04:56:53;;;;;;;;;60.40;48.00;;;;;6.97;44.89;98956.91;6221499;27;96521;-60
2023/03/19 05:00:00;;;;;;;;;62.60;49.80;;;;;7.06;45.12;98954.06;6292220;27;96201;-60
2023/03/19 05:03:06;;;;;;;;;62.80;50.00;;;;;7.13;44.96;98953.09;6267355;27;96612;-60
2023/03/19 05:06:10;;;;;;;;;60.40;47.40;;;;;7.14;45.07;98951.19;6236229;27;96328;-60
2023/03/19 05:09:13;;;;;;;;;62.60;49.00;;;;;7.21;45.02;98947.56;6252015;27;96403;-62
2023/03/19 05:12:18;;;;;;;;;63.50;50.00;;;;;7.29;45.03;98954.59;6243886;27;96380;-62
2023/03/19 05:15:27;;;;;;;;;65.40;51.00;;;;;7.40;44.90;98952.19;6271216;27;97036;-60
2023/03/19 05:18:42;;;;;;;;;63.50;50.00;;;;;7.60;45.06;98951.44;6278477;27;96927;-60
2023/03/19 05:21:46;;;;;;;;;63.60;50.00;;;;;7.76;44.58;98948.38;6263279;27;96398;-62
2023/03/19 05:24:52;;;;;;;;;57.50;46.50;;;;;7.95;44.54;98950.28;6303253;27;96738;-62
2023/03/19 05:27:56;;;;;;;;;61.25;48.25;;;;;8.09;44.46;98946.59;6254873;27;96457;-62
2023/03/19 05:31:04;;;;;;;;;61.60;47.40;;;;;8.22;43.88;98929.66;6250136;27;98393;-61
2023/03/19 05:34:17;;;;;;;;;60.25;48.75;;;;;8.50;43.82;98945.63;6269116;27;96296;-60
2023/03/19 05:37:20;;;;;;;;;61.20;49.00;;;;;8.64;43.49;98937.38;6266359;27;96340;-60
2023/03/19 05:40:30;;;;;;;;;60.00;48.00;;;;;8.79;43.01;98947.91;6259577;27;96604;-60
2023/03/19 05:43:38;;;;;;;;;60.00;47.75;;;;;8.88;43.30;98946.63;6227569;27;96620;-61
2023/03/19 05:46:49;;;;;;;;;61.00;48.00;;;;;9.05;43.02;98944.31;6248243;27;96876;-61
2023/03/19 05:49:54;;;;;;;;;60.00;48.00;;;;;9.21;42.79;98946.56;6255401;27;96374;-61
2023/03/19 05:52:58;;;;;;;;;58.33;47.00;;;;;9.41;42.68;98941.94;6233044;27;97201;-60
2023/03/19 05:56:02;;;;;;;;;59.00;46.80;;;;;9.63;42.19;98938.97;6226129;27;96604;-60
2023/03/19 05:59:11;;;;;;;;;61.75;48.00;;;;;9.86;41.73;98934.69;6297517;27;96908;-61
2023/03/19 06:02:19;;;;;;;;;60.25;47.50;;;;;10.13;41.42;98927.25;6311572;27;96932;-61
2023/03/19 06:05:28;;;;;;;;;59.75;47.75;;;;;10.40;41.05;98933.31;6242196;27;99939;-60
2023/03/19 06:08:36;;;;;;;;;62.00;50.00;;;;;10.67;40.61;98937.44;6250679;27;96398;-61
2023/03/19 06:11:50;;;;;;;;;64.00;49.40;;;;;10.90;40.40;98942.19;6306182;27;96887;-60
2023/03/19 06:15:16;;;;;;;;;61.00;49.00;;;;;11.21;40.25;98941.25;6244079;27;96473;-61
2023/03/19 06:18:21;;;;;;;;;62.00;49.00;;;;;11.55;39.83;98947.91;6257986;27;96766;-60
2023/03/19 06:21:28;;;;;;;;;63.40;49.80;;;;;11.82;39.59;98933.06;6303872;27;96556;-61
2023/03/19 06:24:35;;;;;;;;;62.60;50.00;;;;;12.06;39.01;98934.81;6244884;27;96350;-61
2023/03/19 06:27:39;;;;;;;;;64.20;49.80;;;;;12.36;38.69;98947.47;6295948;27;98491;-61
2023/03/19 06:31:15;;;;;;;;;66.20;50.00;;;;;12.73;38.33;98951.63;6265312;27;98456;-61
2023/03/19 06:34:33;;;;;;;;;63.80;50.20;;;;;13.06;38.03;98961.03;6263315;27;97851;-61
2023/03/19 06:37:37;;;;;;;;;65.00;50.20;;;;;13.39;37.51;98964.00;6269547;27;96882;-61
2023/03/19 06:40:40;;;;;;;;;66.00;51.80;;;;;13.71;37.18;98964.41;6284294;27;96358;-61
2023/03/19 06:43:43;;;;;;;;;64.75;50.25;;;;;14.08;36.05;98962.97;6268611;27;96474;-61
2023/03/19 06:46:47;;;;;;;;;65.00;50.60;;;;;14.38;35.31;98968.16;6196192;27;96478;-61
2023/03/19 06:49:51;;;;;;;;;64.00;51.00;;;;;14.76;35.00;98963.94;6203668;27;96560;-61
2023/03/19 06:52:54;;;;;;;;;66.00;51.40;;;;;15.21;34.49;98967.34;6270750;27;97142;-61
2023/03/19 06:55:58;;;;;;;;;67.00;52.00;;;;;15.74;33.76;98966.72;6208250;27;96417;-61
2023/03/19 06:59:01;;;;;;;;;63.25;50.00;;;;;16.18;33.16;98969.41;6284072;27;97330;-61
2023/03/19 07:02:04;;;;;;;;;59.60;48.00;;;;;16.66;31.48;98969.38;6212393;27;96379;-61
2023/03/19 07:05:10;;;;;;;;;60.60;48.00;;;;;17.14;30.64;98962.13;6281014;27;97032;-61
2023/03/19 07:08:14;;;;;;;;;61.00;48.00;;;;;17.67;30.12;98958.34;6280136;27;96345;-61
2023/03/19 07:11:17;;;;;;;;;61.60;50.00;;;;;18.30;29.70;98959.09;6239641;27;96324;-61
2023/03/19 07:14:20;;;;;;;;;59.00;48.00;;;;;18.96;28.21;98952.59;6204441;27;96419;-61
2023/03/19 07:17:25;;;;;;;;;62.00;48.00;;;;;19.62;28.06;98959.91;6241458;27;96666;-61
2023/03/19 07:20:30;;;;;;;;;63.00;50.00;;;;;20.19;26.86;98956.63;6275757;27;96856;-61
2023/03/19 07:23:33;;;;;;;;;65.00;51.00;;;;;20.70;26.92;98963.44;6275467;27;97227;-61
2023/03/19 07:26:36;;;;;;;;;65.75;52.00;;;;;21.08;25.51;98948.03;6277200;27;96669;-62
2023/03/19 07:29:39;;;;;;;;;65.80;51.00;;;;;21.52;25.71;98956.13;6205537;27;96251;-62
2023/03/19 07:32:43;;;;;;;;;63.20;48.20;;;;;21.99;25.02;98958.03;6216431;27;96433;-62
2023/03/19 07:35:48;;;;;;;;;62.60;49.00;;;;;22.46;23.71;98948.88;6274029;27;96500;-62
2023/03/19 07:38:52;;;;;;;;;63.00;49.00;;;;;22.86;23.13;98949.38;6208150;27;96477;-62
2023/03/19 07:41:55;;;;;;;;;59.80;48.00;;;;;23.39;23.05;98946.25;6209975;27;96405;-62
2023/03/19 07:45:01;;;;;;;;;62.20;49.00;;;;;23.85;22.07;98943.44;6268405;27;96757;-61
2023/03/19 07:48:09;;;;;;;;;57.40;46.00;;;;;24.14;21.86;98939.19;6199559;27;96512;-61
2023/03/19 07:51:14;;;;;;;;;58.00;46.00;;;;;24.57;21.41;98958.94;6250431;27;96887;-62
2023/03/19 07:54:18;;;;;;;;;58.25;46.00;;;;;25.03;20.78;98955.06;6209887;27;97337;-62
2023/03/19 07:57:21;;;;;;;;;59.80;48.00;;;;;25.36;20.77;98944.56;6210674;27;96807;-62
2023/03/19 08:00:26;;;;;;;;;63.75;50.00;;;;;25.76;20.04;98948.97;6209366;27;96695;-61
2023/03/19 08:03:29;;;;;;;;;58.80;46.00;;;;;26.03;19.53;98941.56;6263734;27;97362;-61
2023/03/19 08:06:34;;;;;;;;;60.00;46.60;;;;;26.29;19.35;98950.75;6278749;27;96671;-61
2023/03/19 08:09:38;;;;;;;;;57.40;46.20;;;;;26.58;19.14;98945.41;6229262;27;97185;-62
2023/03/19 08:12:41;;;;;;;;;56.75;46.00;;;;;26.81;19.08;98936.94;6282100;27;97054;-62
2023/03/19 08:15:44;;;;;;;;;58.00;45.60;;;;;26.87;18.55;98939.25;6238562;27;96519;-63
2023/03/19 08:18:48;;;;;;;;;55.40;44.60;;;;;27.15;19.01;98928.59;6253057;27;96448;-63
2023/03/19 08:21:55;;;;;;;;;54.00;43.40;;;;;27.33;17.93;98907.22;6216790;27;96295;-63
2023/03/19 08:24:59;;;;;;;;;53.00;43.00;;;;;27.70;17.38;98927.78;6278791;27;96602;-62
2023/03/19 08:28:02;;;;;;;;;55.60;44.00;;;;;27.79;17.68;98932.13;6268540;27;97122;-62
2023/03/19 08:31:07;;;;;;;;;52.00;42.00;;;;;28.11;17.56;98932.59;6282051;27;96818;-63
2023/03/19 08:34:11;;;;;;;;;50.00;40.00;;;;;28.34;16.62;98928.41;6203477;27;96301;-63
2023/03/19 08:37:16;;;;;;;;;50.00;41.00;;;;;28.42;16.64;98925.56;6270158;27;96929;-63
2023/03/19 08:40:24;;;;;;;;;51.00;41.50;;;;;28.52;16.85;98920.75;6228210;27;96539;-63
2023/03/19 08:43:28;;;;;;;;;47.00;38.00;;;;;28.49;16.42;98927.81;6207041;27;97320;-63
2023/03/19 08:46:32;;;;;;;;;47.00;38.00;;;;;28.41;17.06;98921.16;6218278;27;97414;-63
2023/03/19 08:49:35;;;;;;;;;45.00;37.00;;;;;28.29;16.55;98931.38;6286931;27;96551;-64
2023/03/19 08:52:41;;;;;;;;;42.40;36.00;;;;;27.94;16.84;98922.44;6281312;27;99369;-63
2023/03/19 08:55:44;;;;;;;;;45.00;36.20;;;;;28.03;17.08;98912.09;6216124;27;96397;-63
2023/03/19 08:58:47;;;;;;;;;43.75;36.00;;;;;28.52;17.23;98926.28;6276963;27;96801;-64
2023/03/19 09:01:52;;;;;;;;;45.00;36.00;;;;;28.88;16.59;98923.72;6214983;27;97468;-63
2023/03/19 09:04:55;;;;;;;;;41.25;35.00;;;;;29.33;16.10;98917.38;6212854;27;96434;-63
2023/03/19 09:08:00;;;;;;;;;41.60;35.20;;;;;29.84;15.97;98911.16;6219781;27;96689;-63
2023/03/19 09:11:04;;;;;;;;;40.00;35.00;;;;;29.96;15.36;98927.84;6281739;27;98621;-64
2023/03/19 09:14:08;;;;;;;;;38.75;33.75;;;;;30.22;15.23;98929.47;6218385;27;96581;-64
2023/03/19 09:17:14;;;;;;;;;40.80;34.60;;;;;30.62;15.41;98921.97;6286233;27;97096;-64
2023/03/19 09:20:17;;;;;;;;;41.20;35.00;;;;;30.82;15.15;98925.72;6217449;27;97504;-63
2023/03/19 09:23:23;;;;;;;;;44.00;33.60;;;;;30.88;15.04;98918.75;6289224;27;96375;-64
2023/03/19 09:26:26;;;;;;;;;40.80;34.20;;;;;30.91;14.84;98907.69;6289128;27;97173;-64
2023/03/19 09:29:30;;;;;;;;;41.00;35.00;;;;;31.12;14.83;98909.47;6215524;27;96496;-64
2023/03/19 09:32:33;;;;;;;;;36.75;33.00;;;;;31.39;14.13;98911.38;6281787;27;98570;-64
2023/03/19 09:35:38;;;;;;;;;36.50;32.50;;;;;31.59;14.12;98909.53;6218932;27;96416;-64
2023/03/19 09:38:46;;;;;;;;;36.80;32.40;;;;;31.92;14.04;98906.34;6288652;27;96316;-64
2023/03/19 09:42:05;;;;;;;;;36.80;31.80;;;;;32.12;13.68;98905.25;6264973;27;97198;-64
2023/03/19 09:45:14;;;;;;;;;37.40;30.80;;;;;32.09;13.68;98897.59;6277643;27;97464;-64
2023/03/19 09:48:27;;;;;;;;;34.40;30.00;;;;;32.18;13.96;98889.84;6285189;27;98932;-64
2023/03/19 09:51:41;;;;;;;;;34.00;30.75;;;;;32.36;13.49;98888.25;6218391;27;97087;-64
2023/03/19 09:54:52;;;;;;;;;33.25;30.75;;;;;32.48;13.64;98895.69;6268583;27;96660;-65
2023/03/19 09:57:57;;;;;;;;;31.40;29.00;;;;;32.61;13.18;98895.16;6211498;27;96456;-64
2023/03/19 10:01:02;;;;;;;;;34.00;30.00;;;;;32.57;13.00;98891.50;6224309;27;96567;-64
2023/03/19 10:04:39;;;;;;;;;34.00;32.00;;;;;32.42;12.89;98886.81;6254928;27;97463;-64
2023/03/19 10:07:56;;;;;;;;;32.50;29.50;;;;;32.47;12.98;98880.13;6269828;27;98338;-63
2023/03/19 10:11:17;;;;;;;;;33.00;29.00;;;;;31.96;13.29;98880.16;6280290;27;97429;-63
2023/03/19 10:14:43;;;;;;;;;29.00;27.00;;;;;31.19;13.94;98879.00;6216946;27;96421;-62
2023/03/19 10:17:56;;;;;;;;;30.00;27.00;;;;;30.51;14.30;98879.91;6213376;27;96253;-62
2023/03/19 10:21:04;;;;;;;;;29.25;27.00;;;;;30.27;14.50;98868.84;6232972;27;96152;-62
2023/03/19 10:24:13;;;;;;;;;25.80;24.20;;;;;29.86;15.08;98867.16;6215145;27;96808;-62
2023/03/19 10:27:21;;;;;;;;;28.00;26.50;;;;;29.81;15.45;98869.38;6283937;27;96899;-63
2023/03/19 10:30:25;;;;;;;;;27.60;26.60;;;;;30.16;15.03;98866.88;6271878;27;98310;-64
2023/03/19 10:33:42;;;;;;;;;26.75;25.00;;;;;30.27;14.41;98854.13;6275963;27;97275;-63
2023/03/19 10:36:46;;;;;;;;;28.00;25.00;;;;;30.52;14.95;98858.47;6215399;27;96594;-62
2023/03/19 10:39:50;;;;;;;;;20.50;20.50;;;;;30.70;13.75;98847.84;6274405;27;96694;-63
2023/03/19 10:43:06;;;;;;;;;19.60;18.60;;;;;30.81;12.90;98848.94;6289376;27;96880;-62
2023/03/19 10:46:13;;;;;;;;;22.60;19.60;;;;;30.74;13.25;98835.63;6290416;27;97700;-62
2023/03/19 10:49:16;;;;;;;;;20.00;18.00;;;;;30.91;13.88;98838.09;6288969;27;96712;-62
2023/03/19 10:52:24;;;;;;;;;21.00;20.00;;;;;31.37;13.15;98830.16;6285993;27;96346;-63
2023/03/19 10:55:31;;;;;;;;;16.00;15.40;;;;;31.68;12.70;98834.91;6298609;27;96963;-63
2023/03/19 10:58:39;;;;;;;;;14.60;13.60;;;;;31.98;12.09;98826.81;6282116;27;97949;-63
2023/03/19 11:01:44;;;;;;;;;15.60;14.60;;;;;31.90;12.07;98813.91;6212682;28;96261;-63
2023/03/19 11:04:47;;;;;;;;;15.00;13.00;;;;;31.50;12.65;98820.50;6238885;27;96462;-63
2023/03/19 11:07:55;;;;;;;;;12.00;12.00;;;;;31.70;11.70;98818.63;6288191;27;96375;-63
2023/03/19 11:10:58;;;;;;;;;11.00;10.60;;;;;31.88;11.85;98813.44;6260827;27;96250;-63
2023/03/19 11:14:15;;;;;;;;;9.80;9.80;;;;;31.66;11.18;98817.75;6275533;27;97574;-63
2023/03/19 11:17:24;;;;;;;;;12.40;10.00;;;;;31.04;11.06;98811.00;6234656;27;96311;-66
2023/03/19 11:20:30;;;;;;;;;10.80;10.20;;;;;30.63;11.13;98819.81;6236009;27;96669;-66
2023/03/19 11:23:40;;;;;;;;;8.60;8.00;;;;;30.06;10.97;98815.38;6263078;27;97601;-65
2023/03/19 11:26:43;;;;;;;;;10.00;10.00;;;;;29.81;11.31;98802.69;6266216;27;97320;-65
2023/03/19 11:29:48;;;;;;;;;10.40;9.40;;;;;29.81;11.47;98809.03;6209738;27;97028;-64
2023/03/19 11:33:15;;;;;;;;;8.00;8.00;;;;;29.95;11.51;98808.69;6238017;27;96314;-65
2023/03/19 11:36:26;;;;;;;;;10.00;10.00;;;;;30.08;10.95;98786.06;6205496;27;96587;-64
2023/03/19 11:39:39;;;;;;;;;11.00;10.00;;;;;30.38;11.36;98792.09;6273343;27;97354;-65
2023/03/19 11:42:55;;;;;;;;;10.00;9.00;;;;;30.65;11.05;98784.91;6209585;27;96584;-65
2023/03/19 11:46:10;;;;;;;;;10.00;9.00;;;;;30.65;10.58;98784.91;6267116;27;96680;-64
2023/03/19 11:49:48;;;;;;;;;9.00;8.20;;;;;30.27;11.37;98779.03;6206217;27;96367;-65
2023/03/19 11:53:01;;;;;;;;;10.20;8.80;;;;;30.28;11.44;98759.22;6203472;27;96601;-65
2023/03/19 11:56:15;;;;;;;;;10.80;10.20;;;;;30.72;10.93;98757.25;6250928;27;97139;-65
2023/03/19 11:59:35;;;;;;;;;10.40;10.40;;;;;31.23;11.13;98760.97;6320532;27;96864;-65
2023/03/19 12:03:07;;;;;;;;;8.00;8.00;;;;;31.37;10.71;98763.28;6205847;27;96293;-65
2023/03/19 12:06:23;;;;;;;;;11.00;10.00;;;;;31.45;10.83;98767.84;6193465;27;96846;-65
2023/03/19 12:09:35;;;;;;;;;10.40;10.00;;;;;31.25;10.74;98760.59;6258597;27;96800;-65
2023/03/19 12:12:43;;;;;;;;;10.75;9.00;;;;;31.42;10.74;98763.78;6251608;27;98012;-65
2023/03/19 12:15:56;;;;;;;;;9.25;9.25;;;;;31.80;10.51;98765.91;6273947;27;96695;-66
2023/03/19 12:19:32;;;;;;;;;9.75;9.75;;;;;32.00;10.86;98763.13;6195198;28;96405;-66
2023/03/19 12:22:49;;;;;;;;;8.20;8.00;;;;;32.04;10.81;98747.28;6233248;27;96414;-65
2023/03/19 12:26:03;;;;;;;;;10.60;9.20;;;;;31.93;10.85;98741.47;6228759;27;97338;-67
2023/03/19 12:29:20;;;;;;;;;11.50;10.50;;;;;31.94;10.74;98751.47;6260507;27;96639;-64
2023/03/19 12:32:37;;;;;;;;;12.00;10.60;;;;;31.51;9.76;98740.53;6204941;27;96228;-66
2023/03/19 12:35:46;;;;;;;;;8.00;8.00;;;;;31.09;11.07;98729.16;6198124;27;96452;-65
2023/03/19 12:38:53;;;;;;;;;8.40;7.80;;;;;30.97;11.32;98724.50;6200004;27;96891;-65
2023/03/19 12:42:00;;;;;;;;;9.75;9.25;;;;;30.91;10.96;98721.16;6258105;27;96184;-65
2023/03/19 12:45:13;;;;;;;;;11.50;10.50;;;;;30.50;11.55;98721.69;6199108;27;96526;-65
2023/03/19 12:48:24;;;;;;;;;10.60;9.60;;;;;30.28;11.12;98714.72;6285450;27;97888;-65
2023/03/19 12:51:35;;;;;;;;;11.00;10.75;;;;;30.28;12.20;98713.91;6268143;27;96288;-65
2023/03/19 12:54:45;;;;;;;;;9.00;9.00;;;;;30.33;11.95;98716.44;6207310;27;97037;-67
2023/03/19 12:57:52;;;;;;;;;12.00;11.00;;;;;30.22;11.69;98705.00;6197767;27;96597;-65
2023/03/19 13:01:02;;;;;;;;;10.00;10.00;;;;;29.73;11.65;98695.22;6200534;27;97625;-64
2023/03/19 13:04:12;;;;;;;;;10.60;10.00;;;;;29.37;11.85;98691.38;6288882;27;96230;-64
2023/03/19 13:07:22;;;;;;;;;9.00;9.00;;;;;28.91;12.66;98695.47;6202009;27;96318;-65
2023/03/19 13:10:26;;;;;;;;;10.25;10.00;;;;;28.71;12.10;98694.41;6189482;27;97014;-65
2023/03/19 13:13:41;;;;;;;;;10.00;9.00;;;;;28.50;12.75;98690.06;6196387;28;96440;-65
2023/03/19 13:16:51;;;;;;;;;12.00;11.00;;;;;28.63;12.27;98694.50;6201772;27;96962;-66
2023/03/19 13:19:55;;;;;;;;;9.40;9.40;;;;;28.51;12.68;98670.31;6261365;27;97011;-65
2023/03/19 13:23:04;;;;;;;;;9.60;9.00;;;;;28.62;12.88;98693.69;6244929;27;98751;-67
2023/03/19 13:26:12;;;;;;;;;10.00;9.00;;;;;28.72;13.72;98686.91;6274585;27;96663;-65
2023/03/19 13:29:20;;;;;;;;;10.00;9.00;;;;;28.66;13.09;98685.47;6189821;27;96474;-65
2023/03/19 13:32:25;;;;;;;;;10.00;10.00;;;;;28.35;12.88;98684.03;6269667;27;98341;-66
2023/03/19 13:35:37;;;;;;;;;10.60;10.00;;;;;28.10;13.47;98676.78;6271999;27;96327;-66
2023/03/19 13:38:45;;;;;;;;;11.00;10.00;;;;;28.15;13.17;98676.59;6213849;27;96429;-66
2023/03/19 13:41:58;;;;;;;;;9.80;9.80;;;;;27.84;13.16;98670.69;6204039;27;96484;-66
2023/03/19 13:45:04;;;;;;;;;10.00;10.00;;;;;27.24;13.62;98662.84;6197275;27;96991;-67
2023/03/19 13:48:34;;;;;;;;;10.80;9.80;;;;;27.32;13.50;98668.31;6242480;27;96287;-67
2023/03/19 13:51:38;;;;;;;;;12.25;10.75;;;;;27.47;13.90;98666.91;6188846;27;96905;-67
2023/03/19 13:54:46;;;;;;;;;11.00;10.00;;;;;27.25;14.20;98668.06;6200079;27;96598;-67
2023/03/19 13:58:00;;;;;;;;;12.40;11.40;;;;;27.05;14.41;98664.13;6255533;27;96623;-67
2023/03/19 14:01:05;;;;;;;;;10.00;9.00;;;;;27.15;15.10;98668.47;6246460;27;98734;-67
2023/03/19 14:04:18;;;;;;;;;10.00;10.00;;;;;27.01;14.41;98668.72;6234066;27;99155;-66
2023/03/19 14:07:26;;;;;;;;;12.00;10.40;;;;;26.76;14.29;98661.34;6259500;27;96361;-67
2023/03/19 14:10:32;;;;;;;;;12.00;11.00;;;;;26.59;14.46;98655.88;6210524;27;96503;-67
2023/03/19 14:13:41;;;;;;;;;13.00;12.00;;;;;26.50;15.08;98658.69;6230751;27;96485;-67
2023/03/19 14:16:46;;;;;;;;;13.00;12.40;;;;;26.57;15.11;98652.66;6290488;27;96821;-67
2023/03/19 14:19:50;;;;;;;;;13.40;11.40;;;;;26.58;15.44;98659.81;6214029;27;96560;-67
2023/03/19 14:23:02;;;;;;;;;9.60;9.60;;;;;26.52;15.25;98655.59;6253768;27;96866;-67
2023/03/19 14:26:15;;;;;;;;;10.60;10.60;;;;;26.34;15.20;98635.47;6217766;27;97097;-67
2023/03/19 14:29:19;;;;;;;;;13.60;13.00;;;;;26.32;15.21;98657.13;6214625;27;97857;-67